createdAt,value
2019-01-04T00:01:30.437Z,-0.60
2019-01-04T00:04:03.024Z,-0.60
2019-01-04T00:06:33.349Z,-0.60
2019-01-04T00:09:03.694Z,-0.60
2019-01-04T00:11:36.233Z,-0.60
2019-01-04T00:14:06.560Z,-0.60
2019-01-04T00:16:36.887Z,-0.60
2019-01-04T00:19:07.247Z,-0.60
2019-01-04T00:21:37.557Z,-0.60
2019-01-04T00:24:09.268Z,-0.60
2019-01-04T00:26:39.561Z,-0.60
2019-01-04T00:29:09.921Z,-0.60
2019-01-04T00:31:40.237Z,-0.60
2019-01-04T00:34:11.205Z,-0.60
2019-01-04T00:36:41.562Z,-0.60
2019-01-04T00:39:11.883Z,-0.70
2019-01-04T00:41:42.228Z,-0.60
2019-01-04T00:44:12.607Z,-0.70
2019-01-04T00:46:43.096Z,-0.70
2019-01-04T00:49:13.396Z,-0.70
2019-01-04T00:51:43.697Z,-0.70
2019-01-04T00:54:15.302Z,-0.70
2019-01-04T00:57:30.861Z,-0.70
2019-01-04T01:00:56.614Z,-0.60
2019-01-04T01:04:07.303Z,-0.60
2019-01-04T01:07:20.393Z,-0.60
2019-01-04T01:10:47.031Z,-0.60
2019-01-04T01:14:03.779Z,-0.60
2019-01-04T01:16:59.127Z,-0.60
2019-01-04T01:20:09.553Z,-0.70
2019-01-04T01:23:35.845Z,-0.80
2019-01-04T01:26:51.333Z,-0.80
2019-01-04T01:29:58.329Z,-0.80
2019-01-04T01:33:17.403Z,-0.90
2019-01-04T01:36:11.151Z,-0.90
2019-01-04T01:39:16.974Z,-0.90
2019-01-04T01:42:30.027Z,-0.90
2019-01-04T01:45:40.567Z,-0.90
2019-01-04T01:48:30.395Z,-0.90
2019-01-04T01:51:13.789Z,-0.90
2019-01-04T01:53:47.609Z,-0.90
2019-01-04T01:56:19.479Z,-0.90
2019-01-04T01:58:49.797Z,-0.90
2019-01-04T02:01:20.242Z,-0.90
2019-01-04T02:03:50.625Z,-0.90
2019-01-04T02:06:20.945Z,-0.90
2019-01-04T02:08:51.289Z,-0.90
2019-01-04T02:11:21.665Z,-1.00
2019-01-04T02:13:51.975Z,-0.90
2019-01-04T02:16:22.353Z,-0.90
2019-01-04T02:18:52.745Z,-0.90
2019-01-04T02:21:23.071Z,-0.90
2019-01-04T02:23:53.405Z,-1.00
2019-01-04T02:26:23.701Z,-0.90
2019-01-04T02:28:54.001Z,-0.90
2019-01-04T02:31:24.278Z,-0.90
2019-01-04T02:33:54.610Z,-0.80
2019-01-04T02:36:24.921Z,-0.90
2019-01-04T02:38:55.269Z,-0.90
2019-01-04T02:41:25.625Z,-0.90
2019-01-04T02:43:55.935Z,-0.80
2019-01-04T02:46:26.275Z,-0.90
2019-01-04T02:48:56.713Z,-0.90
2019-01-04T02:51:27.077Z,-0.90
2019-01-04T02:53:57.417Z,-0.90
2019-01-04T02:56:28.321Z,-0.90
2019-01-04T02:58:58.681Z,-0.90
2019-01-04T03:01:28.981Z,-1.00
2019-01-04T03:03:59.322Z,-1.00
2019-01-04T03:06:29.681Z,-0.90
2019-01-04T03:09:00.011Z,-0.90
2019-01-04T03:11:30.354Z,-0.90
2019-01-04T03:14:01.732Z,-1.00
2019-01-04T03:16:32.202Z,-1.00
2019-01-04T03:19:02.496Z,-1.00
2019-01-04T03:21:32.809Z,-1.00
2019-01-04T03:24:03.101Z,-1.00
2019-01-04T03:26:34.061Z,-0.90
2019-01-04T03:29:04.428Z,-1.00
2019-01-04T03:31:34.760Z,-1.00
2019-01-04T03:34:05.037Z,-1.00
2019-01-04T03:36:35.369Z,-1.10
2019-01-04T03:39:06.047Z,-1.10
2019-01-04T03:41:36.487Z,-1.10
2019-01-04T03:44:06.828Z,-1.10
2019-01-04T03:46:37.161Z,-1.10
2019-01-04T03:49:07.566Z,-1.10
2019-01-04T03:51:37.857Z,-1.10
2019-01-04T03:54:08.199Z,-1.10
2019-01-04T03:56:39.016Z,-1.20
2019-01-04T03:59:09.342Z,-1.20
2019-01-04T04:01:39.689Z,-1.20
2019-01-04T04:04:09.990Z,-1.20
2019-01-04T04:06:41.423Z,-1.20
2019-01-04T04:09:11.702Z,-1.30
2019-01-04T04:11:42.041Z,-1.30
2019-01-04T04:14:12.339Z,-1.40
2019-01-04T04:16:42.717Z,-1.50
2019-01-04T04:19:13.021Z,-1.50
2019-01-04T04:21:43.345Z,-1.50
2019-01-04T04:24:13.686Z,-1.60
2019-01-04T04:26:44.309Z,-1.60
2019-01-04T04:29:14.681Z,-1.60
2019-01-04T04:31:45.046Z,-1.70
2019-01-04T04:34:15.377Z,-1.70
2019-01-04T04:36:45.853Z,-1.70
2019-01-04T04:39:16.166Z,-1.80
2019-01-04T04:41:46.457Z,-1.80
2019-01-04T04:44:16.838Z,-1.90
2019-01-04T04:46:47.137Z,-2.00
2019-01-04T04:49:17.465Z,-2.00
2019-01-04T04:51:47.879Z,-2.10
2019-01-04T04:54:18.209Z,-2.10
2019-01-04T04:56:49.872Z,-2.10
2019-01-04T04:59:20.249Z,-2.20
2019-01-04T05:01:50.559Z,-2.30
2019-01-04T05:04:20.922Z,-2.30
2019-01-04T05:06:51.262Z,-2.30
2019-01-04T05:09:21.598Z,-2.30
2019-01-04T05:11:51.989Z,-2.30
2019-01-04T05:14:22.325Z,-2.40
2019-01-04T05:16:52.767Z,-2.40
2019-01-04T05:19:23.171Z,-2.50
2019-01-04T05:21:53.498Z,-2.50
2019-01-04T05:24:23.786Z,-2.60
2019-01-04T05:26:55.590Z,-2.60
2019-01-04T05:29:25.906Z,-2.60
2019-01-04T05:31:56.253Z,-2.70
2019-01-04T05:34:26.563Z,-2.70
2019-01-04T05:36:56.930Z,-2.70
2019-01-04T05:39:27.210Z,-2.70
2019-01-04T05:41:57.549Z,-2.70
2019-01-04T05:44:27.851Z,-2.80
2019-01-04T05:46:58.205Z,-2.80
2019-01-04T05:49:28.563Z,-2.80
2019-01-04T05:51:58.932Z,-2.90
2019-01-04T05:54:29.214Z,-2.90
2019-01-04T05:57:00.624Z,-2.90
2019-01-04T05:59:30.931Z,-3.00
2019-01-04T06:02:02.349Z,-3.00
2019-01-04T06:04:32.650Z,-3.00
2019-01-04T06:07:02.973Z,-3.00
2019-01-04T06:09:33.255Z,-3.10
2019-01-04T06:12:03.587Z,-3.10
2019-01-04T06:14:34.223Z,-3.10
2019-01-04T06:17:04.659Z,-3.10
2019-01-04T06:19:34.961Z,-3.20
2019-01-04T06:22:05.289Z,-3.20
2019-01-04T06:24:35.629Z,-3.20
2019-01-04T06:27:07.117Z,-3.10
2019-01-04T06:29:37.481Z,-3.10
2019-01-04T06:32:08.175Z,-3.10
2019-01-04T06:34:38.501Z,-3.10
2019-01-04T06:37:08.871Z,-3.10
2019-01-04T06:39:39.209Z,-3.20
2019-01-04T06:42:09.549Z,-3.20
2019-01-04T06:44:39.895Z,-3.20
2019-01-04T06:47:18.106Z,-3.20
2019-01-04T06:49:49.593Z,-3.30
2019-01-04T06:52:21.689Z,-3.20
2019-01-04T06:55:28.836Z,-3.30
2019-01-04T06:58:00.369Z,-3.20
2019-01-04T07:00:30.713Z,-3.20
2019-01-04T07:03:01.003Z,-3.20
2019-01-04T07:05:31.823Z,-3.10
2019-01-04T07:08:02.225Z,-3.10
2019-01-04T07:10:32.645Z,-3.10
2019-01-04T07:13:03.017Z,-3.00
2019-01-04T07:15:33.378Z,-3.00
2019-01-04T07:18:03.859Z,-2.90
2019-01-04T07:20:34.221Z,-2.80
2019-01-04T07:23:04.581Z,-2.70
2019-01-04T07:25:34.959Z,-2.70
2019-01-04T07:28:06.206Z,-2.60
2019-01-04T07:30:36.605Z,-2.50
2019-01-04T07:33:07.067Z,-2.50
2019-01-04T07:35:37.507Z,-2.40
2019-01-04T07:38:07.931Z,-2.40
2019-01-04T07:40:38.389Z,-2.40
2019-01-04T07:43:08.859Z,-2.40
2019-01-04T07:45:39.316Z,-2.30
2019-01-04T07:48:09.795Z,-2.30
2019-01-04T07:50:40.281Z,-2.30
2019-01-04T07:53:10.794Z,-2.30
2019-01-04T07:55:41.266Z,-2.30
2019-01-04T07:58:12.465Z,-2.20
2019-01-04T08:00:42.801Z,-2.10
2019-01-04T08:03:22.519Z,-2.10
2019-01-04T08:05:56.281Z,-2.00
2019-01-04T08:08:26.617Z,-1.90
2019-01-04T08:10:56.969Z,-1.90
2019-01-04T08:13:27.313Z,-1.80
2019-01-04T08:15:58.709Z,-1.70
2019-01-04T08:18:29.125Z,-1.60
2019-01-04T08:20:59.507Z,-1.50
2019-01-04T08:23:30.901Z,-1.40
2019-01-04T08:26:01.261Z,-1.30
2019-01-04T08:28:32.825Z,-1.30
2019-01-04T08:31:03.140Z,-1.30
2019-01-04T08:33:33.639Z,-1.20
2019-01-04T08:36:03.965Z,-1.20
2019-01-04T08:38:34.416Z,-1.10
2019-01-04T08:41:04.731Z,-1.00
2019-01-04T08:43:35.063Z,-0.90
2019-01-04T08:46:05.369Z,-0.80
2019-01-04T08:48:35.733Z,-0.70
2019-01-04T08:51:06.117Z,-0.60
2019-01-04T08:54:01.452Z,-0.60
2019-01-04T08:56:34.321Z,-0.60
2019-01-04T08:59:05.841Z,-0.50
2019-01-04T09:01:36.165Z,-0.40
2019-01-04T09:04:06.531Z,-0.40
2019-01-04T09:06:36.866Z,-0.40
2019-01-04T09:09:08.105Z,-0.30
2019-01-04T09:11:38.477Z,-0.30
2019-01-04T09:14:08.821Z,-0.30
2019-01-04T09:16:39.130Z,-0.30
2019-01-04T09:19:09.503Z,-0.20
2019-01-04T09:21:39.825Z,-0.20
2019-01-04T09:24:10.245Z,-0.10
2019-01-04T09:26:40.550Z,0.00
2019-01-04T09:29:14.471Z,0.00
2019-01-04T09:31:44.791Z,0.10
2019-01-04T09:34:15.173Z,0.10
2019-01-04T09:36:45.481Z,0.20
2019-01-04T09:39:15.831Z,0.30
2019-01-04T09:42:10.846Z,0.40
2019-01-04T09:44:41.626Z,0.50
2019-01-04T09:47:11.935Z,0.60
2019-01-04T09:49:42.291Z,0.60
2019-01-04T09:52:12.602Z,0.70
2019-01-04T09:54:42.945Z,0.70
2019-01-04T09:57:13.273Z,0.80
2019-01-04T09:59:45.081Z,0.90
2019-01-04T10:02:15.447Z,1.00
2019-01-04T10:04:45.765Z,1.10
2019-01-04T10:07:16.117Z,1.20
2019-01-04T10:09:46.443Z,1.30
2019-01-04T10:12:16.781Z,1.40
2019-01-04T10:14:47.083Z,1.50
2019-01-04T10:17:17.429Z,1.60
2019-01-04T10:19:47.818Z,1.60
2019-01-04T10:22:18.189Z,1.60
2019-01-04T10:24:48.604Z,1.70
2019-01-04T10:27:18.927Z,1.70
2019-01-04T10:29:49.885Z,1.70
2019-01-04T10:32:20.262Z,1.80
2019-01-04T10:34:50.649Z,1.80
2019-01-04T10:37:21.016Z,1.80
2019-01-04T10:39:51.366Z,1.90
2019-01-04T10:42:21.721Z,1.90
2019-01-04T10:44:52.093Z,2.00
2019-01-04T10:47:22.465Z,2.00
2019-01-04T10:49:52.761Z,2.00
2019-01-04T10:52:24.092Z,2.10
2019-01-04T10:54:54.451Z,2.10
2019-01-04T10:57:24.899Z,2.10
2019-01-04T10:59:56.661Z,2.10
2019-01-04T11:02:27.014Z,2.20
2019-01-04T11:04:57.501Z,2.20
2019-01-04T11:07:27.857Z,2.20
2019-01-04T11:09:58.209Z,2.20
2019-01-04T11:12:28.600Z,2.20
2019-01-04T11:14:58.973Z,2.20
2019-01-04T11:17:29.405Z,2.20
2019-01-04T11:19:59.754Z,2.20
2019-01-04T11:23:08.733Z,2.20
2019-01-04T11:26:04.430Z,2.20
2019-01-04T11:28:59.305Z,2.10
2019-01-04T11:32:01.849Z,2.10
2019-01-04T11:34:57.770Z,2.10
2019-01-04T11:37:51.745Z,2.00
2019-01-04T11:40:38.949Z,1.90
2019-01-04T11:43:50.655Z,2.00
2019-01-04T11:46:45.569Z,1.80
2019-01-04T11:49:35.477Z,1.80
2019-01-04T11:52:34.149Z,1.70
2019-01-04T11:55:04.647Z,1.60
2019-01-04T11:57:35.371Z,1.50
2019-01-04T12:00:08.344Z,1.50
2019-01-04T12:02:39.949Z,1.50
2019-01-04T12:05:12.039Z,1.50
2019-01-04T12:07:42.516Z,1.40
2019-01-04T12:10:12.869Z,1.40
2019-01-04T12:12:43.255Z,1.40
2019-01-04T12:15:13.673Z,1.40
2019-01-04T12:17:43.979Z,1.40
2019-01-04T12:20:14.389Z,1.40
2019-01-04T12:22:44.681Z,1.40
2019-01-04T12:25:15.057Z,1.30
2019-01-04T12:27:45.433Z,1.20
2019-01-04T12:30:15.781Z,1.20
2019-01-04T12:32:47.393Z,1.10
2019-01-04T12:35:17.791Z,1.10
2019-01-04T12:37:48.095Z,1.00
2019-01-04T12:40:18.437Z,1.00
2019-01-04T12:42:48.789Z,1.00
2019-01-04T12:45:19.135Z,1.00
2019-01-04T12:47:49.441Z,1.00
2019-01-04T12:50:19.741Z,1.00
2019-01-04T12:52:51.254Z,1.00
2019-01-04T12:55:21.695Z,1.10
2019-01-04T12:57:52.083Z,1.00
2019-01-04T13:00:22.438Z,1.00
2019-01-04T13:02:53.549Z,1.00
2019-01-04T13:05:23.859Z,0.80
2019-01-04T13:07:54.261Z,0.80
2019-01-04T13:10:24.681Z,0.80
2019-01-04T13:12:55.033Z,0.80
2019-01-04T13:15:25.419Z,0.80
2019-01-04T13:17:55.838Z,0.70
2019-01-04T13:20:26.209Z,0.70
2019-01-04T13:22:56.560Z,0.60
2019-01-04T13:25:26.873Z,0.60
2019-01-04T13:27:57.269Z,0.50
2019-01-04T13:30:29.840Z,0.50
2019-01-04T13:33:01.525Z,0.50
2019-01-04T13:35:31.917Z,0.40
2019-01-04T13:38:02.291Z,0.40
2019-01-04T13:40:32.713Z,0.50
2019-01-04T13:43:03.163Z,0.50
2019-01-04T13:45:33.537Z,0.50
2019-01-04T13:48:03.897Z,0.60
2019-01-04T13:50:34.234Z,0.60
2019-01-04T13:53:04.597Z,0.50
2019-01-04T13:55:34.930Z,0.50
2019-01-04T13:58:05.299Z,0.40
2019-01-04T14:00:35.741Z,0.40
2019-01-04T14:03:10.833Z,0.40
2019-01-04T14:05:41.203Z,0.40
2019-01-04T14:08:11.615Z,0.40
2019-01-04T14:10:41.965Z,0.30
2019-01-04T14:13:12.309Z,0.30
2019-01-04T14:15:42.671Z,0.20
2019-01-04T14:18:13.161Z,0.20
2019-01-04T14:20:43.548Z,0.20
2019-01-04T14:23:13.907Z,0.20
2019-01-04T14:25:44.221Z,0.20
2019-01-04T14:28:14.614Z,0.20
2019-01-04T14:30:44.953Z,0.20
2019-01-04T14:33:16.673Z,0.20
2019-01-04T14:35:47.029Z,0.30
2019-01-04T14:38:17.389Z,0.20
2019-01-04T14:40:47.815Z,0.20
2019-01-04T14:43:18.170Z,0.20
2019-01-04T14:45:48.497Z,0.20
2019-01-04T14:48:18.840Z,0.20
2019-01-04T14:50:49.156Z,0.20
2019-01-04T14:53:19.550Z,0.20
2019-01-04T14:55:49.893Z,0.20
2019-01-04T14:58:20.295Z,0.20
2019-01-04T15:00:50.621Z,0.10
2019-01-04T15:03:22.277Z,0.20
2019-01-04T15:05:53.593Z,0.20
2019-01-04T15:08:23.937Z,0.10
2019-01-04T15:10:54.286Z,0.10
2019-01-04T15:13:24.609Z,0.10
2019-01-04T15:15:55.079Z,0.10
2019-01-04T15:18:26.311Z,0.10
2019-01-04T15:20:56.827Z,0.10
2019-01-04T15:23:27.137Z,0.10
2019-01-04T15:25:57.489Z,0.10
2019-01-04T15:28:27.892Z,0.10
2019-01-04T15:30:58.252Z,0.10
2019-01-04T15:33:28.913Z,0.20
2019-01-04T15:35:59.413Z,0.20
2019-01-04T15:38:36.059Z,0.20
2019-01-04T15:41:02.287Z,0.20
2019-01-04T15:43:32.669Z,0.20
2019-01-04T15:46:03.050Z,0.10
2019-01-04T15:48:33.414Z,0.20
2019-01-04T15:51:03.826Z,0.20
2019-01-04T15:53:34.215Z,0.20
2019-01-04T15:56:04.601Z,0.20
2019-01-04T15:58:34.953Z,0.30
2019-01-04T16:01:05.371Z,0.30
2019-01-04T16:03:36.173Z,0.40
2019-01-04T16:06:06.541Z,0.40
2019-01-04T16:08:36.875Z,0.40
2019-01-04T16:11:07.177Z,0.40
2019-01-04T16:13:37.598Z,0.30
2019-01-04T16:16:07.968Z,0.30
2019-01-04T16:18:40.251Z,0.30
2019-01-04T16:21:10.667Z,0.30
2019-01-04T16:23:41.113Z,0.30
2019-01-04T16:26:11.507Z,0.30
2019-01-04T16:28:41.856Z,0.30
2019-01-04T16:31:12.291Z,0.30
2019-01-04T16:33:43.409Z,0.30
2019-01-04T16:36:13.786Z,0.20
2019-01-04T16:38:44.182Z,0.20
2019-01-04T16:41:14.545Z,0.20
2019-01-04T16:43:44.861Z,0.30
2019-01-04T16:46:15.317Z,0.30
2019-01-04T16:48:45.639Z,0.20
2019-01-04T16:51:16.107Z,0.20
2019-01-04T16:53:46.431Z,0.20
2019-01-04T16:56:16.801Z,0.30
2019-01-04T16:58:47.131Z,0.20
2019-01-04T17:01:17.493Z,0.20
2019-01-04T17:03:48.883Z,0.20
2019-01-04T17:06:19.217Z,0.20
2019-01-04T17:08:49.659Z,0.20
2019-01-04T17:11:20.031Z,0.30
2019-01-04T17:13:50.385Z,0.30
2019-01-04T17:16:20.707Z,0.30
2019-01-04T17:18:51.046Z,0.30
2019-01-04T17:21:21.357Z,0.30
2019-01-04T17:23:51.689Z,0.30
2019-01-04T17:26:22.054Z,0.30
2019-01-04T17:28:52.389Z,0.30
2019-01-04T17:31:22.795Z,0.30
2019-01-04T17:33:53.495Z,0.40
2019-01-04T17:36:23.854Z,0.40
2019-01-04T17:38:54.240Z,0.40
2019-01-04T17:41:24.543Z,0.40
2019-01-04T17:43:54.879Z,0.40
2019-01-04T17:46:25.305Z,0.40
2019-01-04T17:48:55.710Z,0.30
2019-01-04T17:51:26.045Z,0.30
2019-01-04T17:53:56.372Z,0.30
2019-01-04T17:56:26.708Z,0.30
2019-01-04T17:58:57.042Z,0.30
2019-01-04T18:01:27.377Z,0.30
2019-01-04T18:03:59.295Z,0.30
2019-01-04T18:06:29.630Z,0.40
2019-01-04T18:09:01.028Z,0.40
2019-01-04T18:11:32.023Z,0.40
2019-01-04T18:14:02.347Z,0.40
2019-01-04T18:16:32.668Z,0.40
2019-01-04T18:19:03.046Z,0.40
2019-01-04T18:21:33.420Z,0.40
2019-01-04T18:24:03.839Z,0.40
2019-01-04T18:26:34.276Z,0.40
2019-01-04T18:29:04.695Z,0.50
2019-01-04T18:31:35.134Z,0.50
2019-01-04T18:34:06.550Z,0.50
2019-01-04T18:36:36.912Z,0.50
2019-01-04T18:39:07.850Z,0.50
2019-01-04T18:41:38.183Z,0.50
2019-01-04T18:44:08.502Z,0.50
2019-01-04T18:46:38.816Z,0.50
2019-01-04T18:49:09.170Z,0.50
2019-01-04T18:51:39.513Z,0.50
2019-01-04T18:54:09.839Z,0.50
2019-01-04T18:56:40.165Z,0.60
2019-01-04T18:59:10.523Z,0.60
2019-01-04T19:01:40.915Z,0.60
2019-01-04T19:04:11.795Z,0.60
2019-01-04T19:06:42.192Z,0.70
2019-01-04T19:09:12.620Z,0.60
2019-01-04T19:11:43.564Z,0.60
2019-01-04T19:14:14.051Z,0.60
2019-01-04T19:16:44.397Z,0.70
2019-01-04T19:19:14.740Z,0.70
2019-01-04T19:21:45.110Z,0.60
2019-01-04T19:24:15.494Z,0.60
2019-01-04T19:26:45.871Z,0.60
2019-01-04T19:29:17.309Z,0.60
2019-01-04T19:31:47.726Z,0.60
2019-01-04T19:34:18.680Z,0.60
2019-01-04T19:36:49.007Z,0.60
2019-01-04T19:39:19.360Z,0.70
2019-01-04T19:41:49.744Z,0.60
2019-01-04T19:44:20.118Z,0.60
2019-01-04T19:46:50.449Z,0.60
2019-01-04T19:49:20.757Z,0.60
2019-01-04T19:51:51.076Z,0.60
2019-01-04T19:54:21.416Z,0.50
2019-01-04T19:56:52.337Z,0.50
2019-01-04T19:59:22.662Z,0.60
2019-01-04T20:01:52.994Z,0.60
2019-01-04T20:04:25.770Z,0.60
2019-01-04T20:07:52.976Z,0.60
2019-01-04T20:11:33.178Z,0.60
2019-01-04T20:15:14.579Z,0.60
2019-01-04T20:18:06.174Z,0.60
2019-01-04T20:20:56.817Z,0.60
2019-01-04T20:23:58.217Z,0.60
2019-01-04T20:27:05.589Z,0.60
2019-01-04T20:29:53.723Z,0.60
2019-01-04T20:32:41.807Z,0.60
2019-01-04T20:35:37.969Z,0.60
2019-01-04T20:38:33.292Z,0.60
2019-01-04T20:41:31.262Z,0.70
2019-01-04T20:44:23.226Z,0.70
2019-01-04T20:47:22.756Z,0.70
2019-01-04T20:50:15.660Z,0.70
2019-01-04T20:53:03.865Z,0.70
2019-01-04T20:55:59.387Z,0.70
2019-01-04T20:59:06.869Z,0.80
2019-01-04T21:02:01.970Z,0.80
2019-01-04T21:04:50.085Z,0.80
2019-01-04T21:07:39.430Z,0.80
2019-01-04T21:10:31.186Z,0.80
2019-01-04T21:13:27.921Z,0.90
2019-01-04T21:16:35.423Z,0.90
2019-01-04T21:19:32.047Z,0.80
2019-01-04T21:22:36.414Z,0.80
2019-01-04T21:25:28.297Z,0.80
2019-01-04T21:28:16.149Z,0.90
2019-01-04T21:31:08.167Z,0.90
2019-01-04T21:33:56.982Z,0.80
2019-01-04T21:36:55.558Z,0.90
2019-01-04T21:39:46.351Z,0.80
2019-01-04T21:42:35.663Z,0.80
2019-01-04T21:45:24.767Z,0.80
2019-01-04T21:48:17.229Z,0.80
2019-01-04T21:51:12.450Z,0.90
2019-01-04T21:54:00.888Z,0.80
2019-01-04T21:57:03.274Z,0.80
2019-01-04T22:00:10.892Z,0.80
2019-01-04T22:02:58.821Z,0.80
2019-01-04T22:05:43.726Z,0.90
2019-01-04T22:08:39.356Z,0.90
2019-01-04T22:11:27.950Z,0.90
2019-01-04T22:14:18.058Z,0.90
2019-01-04T22:16:59.853Z,0.90
2019-01-04T22:19:47.738Z,1.00
2019-01-04T22:22:43.108Z,1.00
2019-01-04T22:25:44.230Z,1.10
2019-01-04T22:28:32.527Z,1.10
2019-01-04T22:31:20.698Z,1.10
2019-01-04T22:34:18.806Z,1.10
2019-01-04T22:37:10.865Z,1.10
2019-01-04T22:40:00.202Z,1.20
2019-01-04T22:43:02.988Z,1.20
2019-01-04T22:46:01.202Z,1.20
2019-01-04T22:49:05.626Z,1.20
2019-01-04T22:52:12.770Z,1.20
2019-01-04T22:55:17.398Z,1.20
2019-01-04T22:58:05.370Z,1.20
2019-01-04T23:01:11.245Z,1.20
2019-01-04T23:04:09.727Z,1.20
2019-01-04T23:07:10.869Z,1.20
2019-01-04T23:10:12.446Z,1.20
2019-01-04T23:13:02.689Z,1.20
2019-01-04T23:15:50.398Z,1.30
2019-01-04T23:18:39.702Z,1.30
2019-01-04T23:22:05.214Z,1.30
2019-01-04T23:24:54.514Z,1.30
2019-01-04T23:27:54.533Z,1.30
2019-01-04T23:30:43.817Z,1.40
2019-01-04T23:33:33.085Z,1.40
2019-01-04T23:36:27.909Z,1.40
2019-01-04T23:39:29.517Z,1.40
2019-01-04T23:42:21.903Z,1.50
2019-01-04T23:45:10.105Z,1.40
2019-01-04T23:48:05.807Z,1.40
2019-01-04T23:50:47.901Z,1.50
2019-01-04T23:53:35.884Z,1.50
2019-01-04T23:56:41.198Z,1.50
2019-01-04T23:59:29.470Z,1.50
